Amasa, Michigan
Current Conditions -  °F | °C
As of 1:16 AM on Thursday 23 Oct 2014 (Local Time) from KIMT Reporting Station
Overcast Overcast  
Wind Chill: 33°   Ceiling: 400
Heat Index: 39°   Visibility: 8mi
Dew Point: 37°   Wind: 9mph
Humidity: 93%   Direction: 160°SSE
Pressure: 30.17"   Gusts: NA
Location:  46.23°N, 88.45°W
Report Text: KIMT 230616Z AUTO 16008KT 8SM OVC004 04/03 A3017 RMK AO2 T00390028
Loading
Personal Weather Stations






























Interactive Weather Map
Tropical Storm Tracking
New forecast layout! Learn more

10-Day Weather Forecast

Advertisements
Track Severe Weather on mobile